Lubbock Preston Smith International Airport Lubbock US
ICAO: KLBB
IATA: LBB
Category: Large
Scheduled Services: Yes

Elevation: 3282 ft
TransAlt. 18000 ft.

Airport Communications:
APP:119.2
ATIS:125.3
CLNC DEL:125.8
DEP:119.2
GND:121.9
FORT WORTH RDO:122.55
TWR:120.5
UNICOM:122.95

KLBB Zoom In..

Runways:

(A) RW 08 length 8003 ft width 150 ft
---- / hdg 81

(B) RW 17L length 2891 ft width 75 ft
---- / hdg 171

(C) RW 17R length 11500 ft width 150 ft
ILS 111.70 / hdg 171

(D) RW 26 length 8003 ft width 150 ft
ILS 111.90 / hdg 261

(E) RW 35L length 11500 ft width 150 ft
---- / hdg 351

(F) RW 35R length 2891 ft width 75 ft
---- / hdg 351

Location; KLBB
Day. 15 / Time. 21.53 Zulu
* Altimeter: 30.03
* Temperature: 34° c. 93.2°f.
* Wind from: 160° Speed 14 kn with Gusts up to 19 kn.
Dewpoint: 11° c.
Visibility: 10 Statute Miles.
Clouds: Few 8000 ft.
Clouds: Few 12000 ft.
Clouds: Scattered 25000 ft.
Conditions: Cumulonimbus.

KLBB 152153Z 16014G19KT 10SM FEW080 FEW120 SCT250 34/11 A3003 RMK AO2 SLP108 CB DSNT N-E-S AND NW STNRY T03440111


Wind From 160°
Speed 14 kn.

 
 
jpsmedia.com for Web Design worldairports.se 2018   terms of use